sensor_id;sensor_type;location;lat;lon;timestamp;temperature;humidity
1650;DHT22;822;53.670;8.676;2023-05-23T00:01:06;14.30;99.90
1650;DHT22;822;53.670;8.676;2023-05-23T00:03:34;14.30;99.90
1650;DHT22;822;53.670;8.676;2023-05-23T00:06:02;14.30;99.90
1650;DHT22;822;53.670;8.676;2023-05-23T00:08:29;14.30;99.90
1650;DHT22;822;53.670;8.676;2023-05-23T00:10:56;14.30;99.90
1650;DHT22;822;53.670;8.676;2023-05-23T00:13:24;14.30;99.90
1650;DHT22;822;53.670;8.676;2023-05-23T00:15:52;14.30;99.90
1650;DHT22;822;53.670;8.676;2023-05-23T00:18:19;14.30;99.90
1650;DHT22;822;53.670;8.676;2023-05-23T00:20:49;14.30;99.90
1650;DHT22;822;53.670;8.676;2023-05-23T00:23:16;14.20;99.90
1650;DHT22;822;53.670;8.676;2023-05-23T00:25:45;14.20;99.90
1650;DHT22;822;53.670;8.676;2023-05-23T00:28:17;14.20;99.90
1650;DHT22;822;53.670;8.676;2023-05-23T00:30:44;14.30;99.90
1650;DHT22;822;53.670;8.676;2023-05-23T00:33:13;14.20;99.90
1650;DHT22;822;53.670;8.676;2023-05-23T00:35:41;14.20;99.90
1650;DHT22;822;53.670;8.676;2023-05-23T00:38:08;14.20;99.90
1650;DHT22;822;53.670;8.676;2023-05-23T00:40:36;14.20;99.90
1650;DHT22;822;53.670;8.676;2023-05-23T00:43:03;14.20;99.90
1650;DHT22;822;53.670;8.676;2023-05-23T00:45:30;14.10;99.90
1650;DHT22;822;53.670;8.676;2023-05-23T00:47:58;14.10;99.90
1650;DHT22;822;53.670;8.676;2023-05-23T00:50:27;14.10;99.90
1650;DHT22;822;53.670;8.676;2023-05-23T00:52:56;14.00;99.90
1650;DHT22;822;53.670;8.676;2023-05-23T00:55:23;14.00;99.90
1650;DHT22;822;53.670;8.676;2023-05-23T00:57:51;14.00;99.90
1650;DHT22;822;53.670;8.676;2023-05-23T01:00:21;14.00;99.90
1650;DHT22;822;53.670;8.676;2023-05-23T01:02:50;14.00;99.90
1650;DHT22;822;53.670;8.676;2023-05-23T01:05:18;13.90;99.90
1650;DHT22;822;53.670;8.676;2023-05-23T01:07:49;13.90;99.90
1650;DHT22;822;53.670;8.676;2023-05-23T01:10:19;13.90;99.90
1650;DHT22;822;53.670;8.676;2023-05-23T01:12:57;13.90;99.90
1650;DHT22;822;53.670;8.676;2023-05-23T01:15:35;13.90;99.90
1650;DHT22;822;53.670;8.676;2023-05-23T01:18:07;13.90;99.90
1650;DHT22;822;53.670;8.676;2023-05-23T01:20:40;13.90;99.90
1650;DHT22;822;53.670;8.676;2023-05-23T01:23:35;13.90;99.90
1650;DHT22;822;53.670;8.676;2023-05-23T01:26:17;13.90;99.90
1650;DHT22;822;53.670;8.676;2023-05-23T01:28:47;13.90;99.90
1650;DHT22;822;53.670;8.676;2023-05-23T01:31:16;13.90;99.90
1650;DHT22;822;53.670;8.676;2023-05-23T01:33:45;13.90;99.90
1650;DHT22;822;53.670;8.676;2023-05-23T01:36:15;13.80;99.90
1650;DHT22;822;53.670;8.676;2023-05-23T01:38:43;13.80;99.90
1650;DHT22;822;53.670;8.676;2023-05-23T01:41:10;13.80;99.90
1650;DHT22;822;53.670;8.676;2023-05-23T01:43:37;13.80;99.90
1650;DHT22;822;53.670;8.676;2023-05-23T01:46:06;13.80;99.90
1650;DHT22;822;53.670;8.676;2023-05-23T01:48:34;13.80;99.90
1650;DHT22;822;53.670;8.676;2023-05-23T01:51:02;13.80;99.90
1650;DHT22;822;53.670;8.676;2023-05-23T01:53:30;13.80;99.90
1650;DHT22;822;53.670;8.676;2023-05-23T01:55:58;13.80;99.90
1650;DHT22;822;53.670;8.676;2023-05-23T01:58:28;13.80;99.90
1650;DHT22;822;53.670;8.676;2023-05-23T02:00:55;13.80;99.90
1650;DHT22;822;53.670;8.676;2023-05-23T02:03:24;13.80;99.90
1650;DHT22;822;53.670;8.676;2023-05-23T02:05:51;13.90;99.90
1650;DHT22;822;53.670;8.676;2023-05-23T02:08:18;13.80;99.90
1650;DHT22;822;53.670;8.676;2023-05-23T02:10:45;13.80;99.90
1650;DHT22;822;53.670;8.676;2023-05-23T02:13:12;13.80;99.90
1650;DHT22;822;53.670;8.676;2023-05-23T02:15:39;13.80;99.90
1650;DHT22;822;53.670;8.676;2023-05-23T02:18:06;13.80;99.90
1650;DHT22;822;53.670;8.676;2023-05-23T02:20:38;13.90;99.90
1650;DHT22;822;53.670;8.676;2023-05-23T02:23:05;13.90;99.90
1650;DHT22;822;53.670;8.676;2023-05-23T02:25:33;13.80;99.90
1650;DHT22;822;53.670;8.676;2023-05-23T02:28:00;13.80;99.90
1650;DHT22;822;53.670;8.676;2023-05-23T02:30:27;13.80;99.90
1650;DHT22;822;53.670;8.676;2023-05-23T02:32:54;13.80;99.90
1650;DHT22;822;53.670;8.676;2023-05-23T02:35:22;13.90;99.90
1650;DHT22;822;53.670;8.676;2023-05-23T02:37:51;13.80;99.90
1650;DHT22;822;53.670;8.676;2023-05-23T02:40:18;13.90;99.90
1650;DHT22;822;53.670;8.676;2023-05-23T02:42:45;13.90;99.90
1650;DHT22;822;53.670;8.676;2023-05-23T02:45:12;13.90;99.90
1650;DHT22;822;53.670;8.676;2023-05-23T02:47:39;13.90;99.90
1650;DHT22;822;53.670;8.676;2023-05-23T02:50:07;13.90;99.90
1650;DHT22;822;53.670;8.676;2023-05-23T02:52:34;13.90;99.90
1650;DHT22;822;53.670;8.676;2023-05-23T02:55:03;14.00;99.90
1650;DHT22;822;53.670;8.676;2023-05-23T02:57:30;14.00;99.90
1650;DHT22;822;53.670;8.676;2023-05-23T02:59:57;14.00;99.90
1650;DHT22;822;53.670;8.676;2023-05-23T03:02:24;14.10;99.90
1650;DHT22;822;53.670;8.676;2023-05-23T03:04:51;14.10;99.90
1650;DHT22;822;53.670;8.676;2023-05-23T03:07:18;14.10;99.90
1650;DHT22;822;53.670;8.676;2023-05-23T03:09:46;14.10;99.90
1650;DHT22;822;53.670;8.676;2023-05-23T03:12:14;14.10;99.90
1650;DHT22;822;53.670;8.676;2023-05-23T03:14:42;14.10;99.90
1650;DHT22;822;53.670;8.676;2023-05-23T03:17:12;14.10;99.90
1650;DHT22;822;53.670;8.676;2023-05-23T03:19:39;14.20;99.90
1650;DHT22;822;53.670;8.676;2023-05-23T03:22:06;14.20;99.90
1650;DHT22;822;53.670;8.676;2023-05-23T03:24:33;14.20;99.90
1650;DHT22;822;53.670;8.676;2023-05-23T03:27:00;14.20;99.90
1650;DHT22;822;53.670;8.676;2023-05-23T03:29:29;14.20;99.90
1650;DHT22;822;53.670;8.676;2023-05-23T03:31:57;14.10;99.90
1650;DHT22;822;53.670;8.676;2023-05-23T03:34:24;14.10;99.90
1650;DHT22;822;53.670;8.676;2023-05-23T03:36:51;14.10;99.90
1650;DHT22;822;53.670;8.676;2023-05-23T03:39:18;14.10;99.90
1650;DHT22;822;53.670;8.676;2023-05-23T03:41:45;14.00;99.90
1650;DHT22;822;53.670;8.676;2023-05-23T03:44:12;14.10;99.90
1650;DHT22;822;53.670;8.676;2023-05-23T03:46:42;14.00;99.90
1650;DHT22;822;53.670;8.676;2023-05-23T03:49:09;14.00;99.90
1650;DHT22;822;53.670;8.676;2023-05-23T03:51:36;14.00;99.90
1650;DHT22;822;53.670;8.676;2023-05-23T03:54:03;14.00;99.90
1650;DHT22;822;53.670;8.676;2023-05-23T03:56:30;14.00;99.90
1650;DHT22;822;53.670;8.676;2023-05-23T03:58:58;13.90;99.90
1650;DHT22;822;53.670;8.676;2023-05-23T04:01:26;13.90;99.90
1650;DHT22;822;53.670;8.676;2023-05-23T04:03:54;13.90;99.90
1650;DHT22;822;53.670;8.676;2023-05-23T04:06:21;13.90;99.90
1650;DHT22;822;53.670;8.676;2023-05-23T04:08:49;13.90;99.90
1650;DHT22;822;53.670;8.676;2023-05-23T04:11:16;13.90;99.90
1650;DHT22;822;53.670;8.676;2023-05-23T04:13:43;13.90;99.90
1650;DHT22;822;53.670;8.676;2023-05-23T04:16:11;13.90;99.90
1650;DHT22;822;53.670;8.676;2023-05-23T04:18:38;13.90;99.90
1650;DHT22;822;53.670;8.676;2023-05-23T04:21:08;13.80;99.90
1650;DHT22;822;53.670;8.676;2023-05-23T04:23:35;13.80;99.90
1650;DHT22;822;53.670;8.676;2023-05-23T04:26:02;13.70;99.90
1650;DHT22;822;53.670;8.676;2023-05-23T04:28:30;13.70;99.90
1650;DHT22;822;53.670;8.676;2023-05-23T04:30:57;13.70;99.90
1650;DHT22;822;53.670;8.676;2023-05-23T04:33:28;13.70;99.90
1650;DHT22;822;53.670;8.676;2023-05-23T04:35:55;13.70;99.90
1650;DHT22;822;53.670;8.676;2023-05-23T04:38:23;13.60;99.90
1650;DHT22;822;53.670;8.676;2023-05-23T04:40:52;13.60;99.90
1650;DHT22;822;53.670;8.676;2023-05-23T04:43:19;13.60;99.90
1650;DHT22;822;53.670;8.676;2023-05-23T04:45:47;13.60;99.90
1650;DHT22;822;53.670;8.676;2023-05-23T04:48:15;13.50;99.90
1650;DHT22;822;53.670;8.676;2023-05-23T04:50:46;13.50;99.90
1650;DHT22;822;53.670;8.676;2023-05-23T04:53:13;13.50;99.90
1650;DHT22;822;53.670;8.676;2023-05-23T04:55:42;13.50;99.90
1650;DHT22;822;53.670;8.676;2023-05-23T04:58:09;13.40;99.90
1650;DHT22;822;53.670;8.676;2023-05-23T05:00:37;13.40;99.90
1650;DHT22;822;53.670;8.676;2023-05-23T05:03:04;13.40;99.90
1650;DHT22;822;53.670;8.676;2023-05-23T05:05:34;13.30;99.90
1650;DHT22;822;53.670;8.676;2023-05-23T05:08:01;13.30;99.90
1650;DHT22;822;53.670;8.676;2023-05-23T05:10:29;13.20;99.90
1650;DHT22;822;53.670;8.676;2023-05-23T05:12:57;13.20;99.90
1650;DHT22;822;53.670;8.676;2023-05-23T05:15:24;13.10;99.90
1650;DHT22;822;53.670;8.676;2023-05-23T05:17:51;13.10;99.90
1650;DHT22;822;53.670;8.676;2023-05-23T05:20:19;13.10;99.90
1650;DHT22;822;53.670;8.676;2023-05-23T05:22:46;13.00;99.90
1650;DHT22;822;53.670;8.676;2023-05-23T05:25:13;13.00;99.90
1650;DHT22;822;53.670;8.676;2023-05-23T05:27:40;12.90;99.90
1650;DHT22;822;53.670;8.676;2023-05-23T05:30:10;12.90;99.90
1650;DHT22;822;53.670;8.676;2023-05-23T05:32:37;12.90;99.90
1650;DHT22;822;53.670;8.676;2023-05-23T05:35:05;12.80;99.90
1650;DHT22;822;53.670;8.676;2023-05-23T05:37:33;12.80;99.90
1650;DHT22;822;53.670;8.676;2023-05-23T05:40:01;12.80;99.90
1650;DHT22;822;53.670;8.676;2023-05-23T05:42:31;12.70;99.90
1650;DHT22;822;53.670;8.676;2023-05-23T05:44:59;12.70;99.90
1650;DHT22;822;53.670;8.676;2023-05-23T05:47:27;12.70;99.90
1650;DHT22;822;53.670;8.676;2023-05-23T05:49:55;12.60;99.90
1650;DHT22;822;53.670;8.676;2023-05-23T05:52:22;12.70;99.90
1650;DHT22;822;53.670;8.676;2023-05-23T05:54:49;12.70;99.90
1650;DHT22;822;53.670;8.676;2023-05-23T05:57:16;12.70;99.90
1650;DHT22;822;53.670;8.676;2023-05-23T05:59:46;12.60;99.90
1650;DHT22;822;53.670;8.676;2023-05-23T06:02:13;12.60;99.90
1650;DHT22;822;53.670;8.676;2023-05-23T06:04:42;12.60;99.90
1650;DHT22;822;53.670;8.676;2023-05-23T06:07:10;12.60;99.90
1650;DHT22;822;53.670;8.676;2023-05-23T06:09:37;12.60;99.90
1650;DHT22;822;53.670;8.676;2023-05-23T06:12:05;12.60;99.90
1650;DHT22;822;53.670;8.676;2023-05-23T06:14:32;12.60;99.90
1650;DHT22;822;53.670;8.676;2023-05-23T06:16:59;12.60;99.90
1650;DHT22;822;53.670;8.676;2023-05-23T06:19:26;12.60;99.90
1650;DHT22;822;53.670;8.676;2023-05-23T06:21:55;12.60;99.90
1650;DHT22;822;53.670;8.676;2023-05-23T06:24:22;12.50;99.90
1650;DHT22;822;53.670;8.676;2023-05-23T06:26:49;12.50;99.90
1650;DHT22;822;53.670;8.676;2023-05-23T06:29:16;12.50;99.90
1650;DHT22;822;53.670;8.676;2023-05-23T06:31:43;12.50;99.90
1650;DHT22;822;53.670;8.676;2023-05-23T06:34:10;12.40;99.90
1650;DHT22;822;53.670;8.676;2023-05-23T06:36:37;12.40;99.90
1650;DHT22;822;53.670;8.676;2023-05-23T06:39:05;12.40;99.90
1650;DHT22;822;53.670;8.676;2023-05-23T06:41:34;12.40;99.90
1650;DHT22;822;53.670;8.676;2023-05-23T06:44:02;12.40;99.90
1650;DHT22;822;53.670;8.676;2023-05-23T06:46:29;12.40;99.90
1650;DHT22;822;53.670;8.676;2023-05-23T06:48:56;12.40;99.90
1650;DHT22;822;53.670;8.676;2023-05-23T06:51:23;12.40;99.90
1650;DHT22;822;53.670;8.676;2023-05-23T06:53:50;12.40;99.90
1650;DHT22;822;53.670;8.676;2023-05-23T06:56:18;12.30;99.90
1650;DHT22;822;53.670;8.676;2023-05-23T06:58:50;12.30;99.90
1650;DHT22;822;53.670;8.676;2023-05-23T07:01:17;12.30;99.80
1650;DHT22;822;53.670;8.676;2023-05-23T07:03:44;12.20;99.90
1650;DHT22;822;53.670;8.676;2023-05-23T07:06:14;12.20;99.90
1650;DHT22;822;53.670;8.676;2023-05-23T07:08:42;12.20;99.80
1650;DHT22;822;53.670;8.676;2023-05-23T07:11:11;12.10;99.70
1650;DHT22;822;53.670;8.676;2023-05-23T07:13:39;12.10;99.80
1650;DHT22;822;53.670;8.676;2023-05-23T07:16:07;12.10;99.70
1650;DHT22;822;53.670;8.676;2023-05-23T07:18:34;12.10;99.50
1650;DHT22;822;53.670;8.676;2023-05-23T07:21:01;12.10;99.70
1650;DHT22;822;53.670;8.676;2023-05-23T07:23:32;12.10;99.60
1650;DHT22;822;53.670;8.676;2023-05-23T07:25:59;12.10;99.40
1650;DHT22;822;53.670;8.676;2023-05-23T07:28:27;12.10;99.30
1650;DHT22;822;53.670;8.676;2023-05-23T07:30:56;12.00;99.20
1650;DHT22;822;53.670;8.676;2023-05-23T07:33:24;12.00;99.20
1650;DHT22;822;53.670;8.676;2023-05-23T07:35:51;11.90;99.30
1650;DHT22;822;53.670;8.676;2023-05-23T07:38:18;11.90;99.20
1650;DHT22;822;53.670;8.676;2023-05-23T07:40:45;12.00;99.20
1650;DHT22;822;53.670;8.676;2023-05-23T07:43:12;12.00;99.10
1650;DHT22;822;53.670;8.676;2023-05-23T07:45:40;11.90;99.00
1650;DHT22;822;53.670;8.676;2023-05-23T07:48:08;11.90;98.70
1650;DHT22;822;53.670;8.676;2023-05-23T07:50:38;11.80;98.70
1650;DHT22;822;53.670;8.676;2023-05-23T07:53:06;11.80;98.70
1650;DHT22;822;53.670;8.676;2023-05-23T07:55:33;11.80;98.40
1650;DHT22;822;53.670;8.676;2023-05-23T07:58:00;11.70;98.30
1650;DHT22;822;53.670;8.676;2023-05-23T08:00:27;11.70;98.20
1650;DHT22;822;53.670;8.676;2023-05-23T08:02:54;11.70;98.20
1650;DHT22;822;53.670;8.676;2023-05-23T08:05:23;11.70;98.30
1650;DHT22;822;53.670;8.676;2023-05-23T08:07:50;11.70;98.30
1650;DHT22;822;53.670;8.676;2023-05-23T08:10:19;11.70;97.90
1650;DHT22;822;53.670;8.676;2023-05-23T08:12:46;11.80;97.90
1650;DHT22;822;53.670;8.676;2023-05-23T08:15:13;11.80;97.90
1650;DHT22;822;53.670;8.676;2023-05-23T08:17:40;11.80;97.80
1650;DHT22;822;53.670;8.676;2023-05-23T08:20:08;11.90;97.30
1650;DHT22;822;53.670;8.676;2023-05-23T08:22:38;11.80;96.90
1650;DHT22;822;53.670;8.676;2023-05-23T08:25:05;11.90;97.20
1650;DHT22;822;53.670;8.676;2023-05-23T08:27:32;11.90;96.90
1650;DHT22;822;53.670;8.676;2023-05-23T08:30:00;11.90;96.80
1650;DHT22;822;53.670;8.676;2023-05-23T08:32:29;12.00;96.50
1650;DHT22;822;53.670;8.676;2023-05-23T08:34:56;12.10;96.60
1650;DHT22;822;53.670;8.676;2023-05-23T08:37:23;12.10;97.00
1650;DHT22;822;53.670;8.676;2023-05-23T08:39:52;12.20;96.50
1650;DHT22;822;53.670;8.676;2023-05-23T08:42:19;12.30;96.10
1650;DHT22;822;53.670;8.676;2023-05-23T08:44:46;12.30;95.80
1650;DHT22;822;53.670;8.676;2023-05-23T08:47:14;12.30;95.90
1650;DHT22;822;53.670;8.676;2023-05-23T08:49:42;12.20;95.30
1650;DHT22;822;53.670;8.676;2023-05-23T08:52:11;12.10;94.90
1650;DHT22;822;53.670;8.676;2023-05-23T08:54:38;12.00;94.60
1650;DHT22;822;53.670;8.676;2023-05-23T08:57:08;12.00;94.80
1650;DHT22;822;53.670;8.676;2023-05-23T08:59:35;12.00;95.10
1650;DHT22;822;53.670;8.676;2023-05-23T09:02:08;12.00;94.80
1650;DHT22;822;53.670;8.676;2023-05-23T09:04:36;12.00;94.20
1650;DHT22;822;53.670;8.676;2023-05-23T09:07:04;12.00;94.30
1650;DHT22;822;53.670;8.676;2023-05-23T09:09:32;12.00;94.30
1650;DHT22;822;53.670;8.676;2023-05-23T09:11:59;12.10;93.50
1650;DHT22;822;53.670;8.676;2023-05-23T09:14:29;12.10;93.60
1650;DHT22;822;53.670;8.676;2023-05-23T09:16:59;12.20;93.50
1650;DHT22;822;53.670;8.676;2023-05-23T09:19:27;12.20;93.50
1650;DHT22;822;53.670;8.676;2023-05-23T09:21:54;12.30;92.10
1650;DHT22;822;53.670;8.676;2023-05-23T09:24:21;12.40;92.30
1650;DHT22;822;53.670;8.676;2023-05-23T09:26:49;12.50;91.90
1650;DHT22;822;53.670;8.676;2023-05-23T09:29:19;12.70;92.10
1650;DHT22;822;53.670;8.676;2023-05-23T09:31:48;12.70;90.90
1650;DHT22;822;53.670;8.676;2023-05-23T09:34:15;12.70;90.60
1650;DHT22;822;53.670;8.676;2023-05-23T09:36:42;12.70;91.20
1650;DHT22;822;53.670;8.676;2023-05-23T09:39:11;12.70;91.10
1650;DHT22;822;53.670;8.676;2023-05-23T09:41:38;12.70;91.20
1650;DHT22;822;53.670;8.676;2023-05-23T09:44:07;12.70;91.10
1650;DHT22;822;53.670;8.676;2023-05-23T09:46:35;12.70;90.30
1650;DHT22;822;53.670;8.676;2023-05-23T09:49:14;12.70;90.20
1650;DHT22;822;53.670;8.676;2023-05-23T09:51:42;12.70;89.30
1650;DHT22;822;53.670;8.676;2023-05-23T09:54:09;12.70;89.50
1650;DHT22;822;53.670;8.676;2023-05-23T09:56:39;12.70;88.90
1650;DHT22;822;53.670;8.676;2023-05-23T09:59:11;12.80;90.00
1650;DHT22;822;53.670;8.676;2023-05-23T10:01:41;12.80;89.50
1650;DHT22;822;53.670;8.676;2023-05-23T10:04:13;12.80;90.40
1650;DHT22;822;53.670;8.676;2023-05-23T10:06:48;12.80;89.20
1650;DHT22;822;53.670;8.676;2023-05-23T10:09:19;12.90;86.80
1650;DHT22;822;53.670;8.676;2023-05-23T10:15:12;13.00;86.50
1650;DHT22;822;53.670;8.676;2023-05-23T10:17:54;13.10;85.40
1650;DHT22;822;53.670;8.676;2023-05-23T10:20:27;13.20;86.80
1650;DHT22;822;53.670;8.676;2023-05-23T10:22:58;13.20;85.60
1650;DHT22;822;53.670;8.676;2023-05-23T10:25:26;13.10;86.70
1650;DHT22;822;53.670;8.676;2023-05-23T10:27:54;13.10;85.20
1650;DHT22;822;53.670;8.676;2023-05-23T10:30:24;13.10;84.90
1650;DHT22;822;53.670;8.676;2023-05-23T10:32:52;13.10;84.00
1650;DHT22;822;53.670;8.676;2023-05-23T10:35:23;13.00;84.90
1650;DHT22;822;53.670;8.676;2023-05-23T10:37:58;13.00;86.40
1650;DHT22;822;53.670;8.676;2023-05-23T10:40:33;12.90;86.20
1650;DHT22;822;53.670;8.676;2023-05-23T10:43:09;12.90;86.30
1650;DHT22;822;53.670;8.676;2023-05-23T10:45:40;12.90;85.00
1650;DHT22;822;53.670;8.676;2023-05-23T10:48:21;12.80;84.70
1650;DHT22;822;53.670;8.676;2023-05-23T10:51:04;12.90;84.50
1650;DHT22;822;53.670;8.676;2023-05-23T10:53:34;12.90;84.00
1650;DHT22;822;53.670;8.676;2023-05-23T10:56:04;13.00;84.50
1650;DHT22;822;53.670;8.676;2023-05-23T10:58:33;13.10;86.70
1650;DHT22;822;53.670;8.676;2023-05-23T11:01:04;13.10;86.00
1650;DHT22;822;53.670;8.676;2023-05-23T11:03:36;13.00;86.30
1650;DHT22;822;53.670;8.676;2023-05-23T11:06:04;12.90;83.80
1650;DHT22;822;53.670;8.676;2023-05-23T11:08:39;12.90;85.20
1650;DHT22;822;53.670;8.676;2023-05-23T11:11:10;12.90;85.00
1650;DHT22;822;53.670;8.676;2023-05-23T11:13:55;13.10;83.10
1650;DHT22;822;53.670;8.676;2023-05-23T11:16:26;13.20;85.20
1650;DHT22;822;53.670;8.676;2023-05-23T11:19:21;13.40;84.50
1650;DHT22;822;53.670;8.676;2023-05-23T11:21:53;13.50;81.80
1650;DHT22;822;53.670;8.676;2023-05-23T11:24:22;13.50;81.80
1650;DHT22;822;53.670;8.676;2023-05-23T11:26:54;13.60;81.60
1650;DHT22;822;53.670;8.676;2023-05-23T11:29:26;13.60;80.00
1650;DHT22;822;53.670;8.676;2023-05-23T11:31:53;13.60;80.50
1650;DHT22;822;53.670;8.676;2023-05-23T11:34:21;13.60;81.40
1650;DHT22;822;53.670;8.676;2023-05-23T11:36:52;13.60;82.20
1650;DHT22;822;53.670;8.676;2023-05-23T11:39:21;13.50;81.20
1650;DHT22;822;53.670;8.676;2023-05-23T11:41:58;13.40;80.80
1650;DHT22;822;53.670;8.676;2023-05-23T11:44:26;13.40;82.10
1650;DHT22;822;53.670;8.676;2023-05-23T11:47:00;13.40;83.90
1650;DHT22;822;53.670;8.676;2023-05-23T11:49:28;13.40;84.60
1650;DHT22;822;53.670;8.676;2023-05-23T11:51:56;13.50;84.50
1650;DHT22;822;53.670;8.676;2023-05-23T11:54:25;13.50;82.40
1650;DHT22;822;53.670;8.676;2023-05-23T11:56:52;13.60;82.40
1650;DHT22;822;53.670;8.676;2023-05-23T11:59:29;13.80;82.60
1650;DHT22;822;53.670;8.676;2023-05-23T12:01:56;14.00;79.80
1650;DHT22;822;53.670;8.676;2023-05-23T12:04:24;14.10;79.60
1650;DHT22;822;53.670;8.676;2023-05-23T12:06:52;14.10;78.40
1650;DHT22;822;53.670;8.676;2023-05-23T12:09:19;14.10;79.00
1650;DHT22;822;53.670;8.676;2023-05-23T12:11:48;14.00;80.70
1650;DHT22;822;53.670;8.676;2023-05-23T12:14:16;14.00;82.00
1650;DHT22;822;53.670;8.676;2023-05-23T12:16:44;14.10;82.10
1650;DHT22;822;53.670;8.676;2023-05-23T12:19:13;14.10;81.60
1650;DHT22;822;53.670;8.676;2023-05-23T12:21:42;14.00;80.20
1650;DHT22;822;53.670;8.676;2023-05-23T12:24:14;14.00;80.10
1650;DHT22;822;53.670;8.676;2023-05-23T12:26:48;13.90;82.90
1650;DHT22;822;53.670;8.676;2023-05-23T12:29:17;13.80;82.00
1650;DHT22;822;53.670;8.676;2023-05-23T12:31:48;13.80;83.50
1650;DHT22;822;53.670;8.676;2023-05-23T12:34:15;13.70;83.90
1650;DHT22;822;53.670;8.676;2023-05-23T12:36:42;13.60;84.50
1650;DHT22;822;53.670;8.676;2023-05-23T12:39:10;13.60;85.40
1650;DHT22;822;53.670;8.676;2023-05-23T12:41:41;13.70;84.90
1650;DHT22;822;53.670;8.676;2023-05-23T12:44:14;13.80;84.10
1650;DHT22;822;53.670;8.676;2023-05-23T12:46:42;13.80;81.30
1650;DHT22;822;53.670;8.676;2023-05-23T12:49:09;14.00;81.60
1650;DHT22;822;53.670;8.676;2023-05-23T12:51:38;14.10;80.90
1650;DHT22;822;53.670;8.676;2023-05-23T12:54:07;14.10;78.10
1650;DHT22;822;53.670;8.676;2023-05-23T12:56:34;14.20;80.30
1650;DHT22;822;53.670;8.676;2023-05-23T12:59:02;14.20;78.00
1650;DHT22;822;53.670;8.676;2023-05-23T13:01:30;14.20;77.70
1650;DHT22;822;53.670;8.676;2023-05-23T13:03:59;14.20;78.60
1650;DHT22;822;53.670;8.676;2023-05-23T13:06:26;14.30;79.00
1650;DHT22;822;53.670;8.676;2023-05-23T13:08:53;14.30;79.20
1650;DHT22;822;53.670;8.676;2023-05-23T13:11:20;14.40;79.00
1650;DHT22;822;53.670;8.676;2023-05-23T13:13:48;14.40;77.40
1650;DHT22;822;53.670;8.676;2023-05-23T13:16:15;14.30;78.70
1650;DHT22;822;53.670;8.676;2023-05-23T13:18:44;14.20;77.30
1650;DHT22;822;53.670;8.676;2023-05-23T13:21:11;14.10;78.70
1650;DHT22;822;53.670;8.676;2023-05-23T13:23:38;14.10;77.20
1650;DHT22;822;53.670;8.676;2023-05-23T13:26:06;14.00;77.40
1650;DHT22;822;53.670;8.676;2023-05-23T13:28:33;14.00;77.80
1650;DHT22;822;53.670;8.676;2023-05-23T13:31:00;13.90;79.30
1650;DHT22;822;53.670;8.676;2023-05-23T13:33:28;13.80;79.50
1650;DHT22;822;53.670;8.676;2023-05-23T13:35:57;13.80;79.40
1650;DHT22;822;53.670;8.676;2023-05-23T13:38:24;13.70;79.90
1650;DHT22;822;53.670;8.676;2023-05-23T13:40:52;13.60;79.20
1650;DHT22;822;53.670;8.676;2023-05-23T13:43:20;13.60;81.60
1650;DHT22;822;53.670;8.676;2023-05-23T13:45:47;13.80;82.10
1650;DHT22;822;53.670;8.676;2023-05-23T13:48:14;13.80;79.30
1650;DHT22;822;53.670;8.676;2023-05-23T13:50:41;13.80;78.10
1650;DHT22;822;53.670;8.676;2023-05-23T13:53:10;13.60;79.00
1650;DHT22;822;53.670;8.676;2023-05-23T13:55:41;13.70;80.20
1650;DHT22;822;53.670;8.676;2023-05-23T13:58:10;13.80;80.90
1650;DHT22;822;53.670;8.676;2023-05-23T14:00:37;13.90;79.60
1650;DHT22;822;53.670;8.676;2023-05-23T14:03:05;14.00;75.20
1650;DHT22;822;53.670;8.676;2023-05-23T14:05:32;14.00;76.40
1650;DHT22;822;53.670;8.676;2023-05-23T14:07:59;14.10;76.70
1650;DHT22;822;53.670;8.676;2023-05-23T14:10:31;14.10;77.60
1650;DHT22;822;53.670;8.676;2023-05-23T14:12:59;14.10;77.00
1650;DHT22;822;53.670;8.676;2023-05-23T14:15:26;14.00;75.20
1650;DHT22;822;53.670;8.676;2023-05-23T14:17:53;13.90;75.50
1650;DHT22;822;53.670;8.676;2023-05-23T14:20:21;13.80;76.70
1650;DHT22;822;53.670;8.676;2023-05-23T14:22:49;13.70;76.10
1650;DHT22;822;53.670;8.676;2023-05-23T14:25:16;13.60;75.70
1650;DHT22;822;53.670;8.676;2023-05-23T14:27:44;13.50;75.60
1650;DHT22;822;53.670;8.676;2023-05-23T14:30:12;13.40;75.10
1650;DHT22;822;53.670;8.676;2023-05-23T14:32:39;13.30;75.70
1650;DHT22;822;53.670;8.676;2023-05-23T14:35:08;13.20;76.50
1650;DHT22;822;53.670;8.676;2023-05-23T14:37:36;13.30;77.70
1650;DHT22;822;53.670;8.676;2023-05-23T14:40:10;13.20;78.00
1650;DHT22;822;53.670;8.676;2023-05-23T14:42:38;13.20;77.30
1650;DHT22;822;53.670;8.676;2023-05-23T14:45:08;13.10;77.50
1650;DHT22;822;53.670;8.676;2023-05-23T14:47:35;13.10;77.30
1650;DHT22;822;53.670;8.676;2023-05-23T14:50:02;13.20;79.60
1650;DHT22;822;53.670;8.676;2023-05-23T14:52:29;13.30;80.40
1650;DHT22;822;53.670;8.676;2023-05-23T14:54:56;13.30;78.60
1650;DHT22;822;53.670;8.676;2023-05-23T14:57:23;13.30;77.80
1650;DHT22;822;53.670;8.676;2023-05-23T14:59:50;13.30;75.20
1650;DHT22;822;53.670;8.676;2023-05-23T15:02:19;13.20;74.60
1650;DHT22;822;53.670;8.676;2023-05-23T15:04:46;13.10;76.10
1650;DHT22;822;53.670;8.676;2023-05-23T15:07:13;13.00;75.60
1650;DHT22;822;53.670;8.676;2023-05-23T15:09:43;13.00;75.70
1650;DHT22;822;53.670;8.676;2023-05-23T15:12:10;13.10;77.20
1650;DHT22;822;53.670;8.676;2023-05-23T15:14:38;13.00;78.10
1650;DHT22;822;53.670;8.676;2023-05-23T15:17:05;13.00;78.10
1650;DHT22;822;53.670;8.676;2023-05-23T15:19:35;13.00;76.10
1650;DHT22;822;53.670;8.676;2023-05-23T15:22:03;12.90;75.80
1650;DHT22;822;53.670;8.676;2023-05-23T15:24:30;12.90;76.00
1650;DHT22;822;53.670;8.676;2023-05-23T15:26:57;12.80;76.50
1650;DHT22;822;53.670;8.676;2023-05-23T15:29:25;12.90;76.50
1650;DHT22;822;53.670;8.676;2023-05-23T15:31:52;12.90;75.20
1650;DHT22;822;53.670;8.676;2023-05-23T15:34:19;12.90;72.70
1650;DHT22;822;53.670;8.676;2023-05-23T15:36:48;12.90;72.90
1650;DHT22;822;53.670;8.676;2023-05-23T15:39:16;12.90;74.90
1650;DHT22;822;53.670;8.676;2023-05-23T15:41:43;12.80;77.00
1650;DHT22;822;53.670;8.676;2023-05-23T15:44:10;12.90;78.70
1650;DHT22;822;53.670;8.676;2023-05-23T15:46:38;12.90;79.20
1650;DHT22;822;53.670;8.676;2023-05-23T15:49:05;12.80;76.20
1650;DHT22;822;53.670;8.676;2023-05-23T15:51:32;12.80;76.20
1650;DHT22;822;53.670;8.676;2023-05-23T15:54:03;12.80;76.60
1650;DHT22;822;53.670;8.676;2023-05-23T15:56:30;12.80;76.50
1650;DHT22;822;53.670;8.676;2023-05-23T15:58:57;12.70;75.10
1650;DHT22;822;53.670;8.676;2023-05-23T16:01:25;12.70;75.30
1650;DHT22;822;53.670;8.676;2023-05-23T16:03:53;12.70;76.40
1650;DHT22;822;53.670;8.676;2023-05-23T16:06:20;12.70;76.00
1650;DHT22;822;53.670;8.676;2023-05-23T16:08:48;12.70;76.40
1650;DHT22;822;53.670;8.676;2023-05-23T16:11:17;12.70;75.10
1650;DHT22;822;53.670;8.676;2023-05-23T16:13:50;12.80;73.50
1650;DHT22;822;53.670;8.676;2023-05-23T16:16:18;12.80;73.00
1650;DHT22;822;53.670;8.676;2023-05-23T16:18:45;12.80;73.80
1650;DHT22;822;53.670;8.676;2023-05-23T16:21:14;12.80;74.50
1650;DHT22;822;53.670;8.676;2023-05-23T16:23:49;12.80;75.50
1650;DHT22;822;53.670;8.676;2023-05-23T16:26:18;12.70;76.50
1650;DHT22;822;53.670;8.676;2023-05-23T16:28:45;12.60;76.40